sensor_id;sensor_type;location;lat;lon;timestamp;P1;durP1;ratioP1;P2;durP2;ratioP2
27728;SDS011;15126;42.186;24.340;2023-03-23T00:00:56;30.27;;;26.33;;
27728;SDS011;15126;42.186;24.340;2023-03-23T00:03:26;29.97;;;26.67;;
27728;SDS011;15126;42.186;24.340;2023-03-23T00:05:54;31.73;;;25.87;;
27728;SDS011;15126;42.186;24.340;2023-03-23T00:08:24;31.67;;;27.30;;
27728;SDS011;15126;42.186;24.340;2023-03-23T00:10:52;35.97;;;30.43;;
27728;SDS011;15126;42.186;24.340;2023-03-23T00:13:23;33.97;;;29.53;;
27728;SDS011;15126;42.186;24.340;2023-03-23T00:15:50;36.80;;;29.63;;
27728;SDS011;15126;42.186;24.340;2023-03-23T00:18:18;35.90;;;29.63;;
27728;SDS011;15126;42.186;24.340;2023-03-23T00:20:47;37.20;;;29.67;;
27728;SDS011;15126;42.186;24.340;2023-03-23T00:23:16;34.87;;;30.67;;
27728;SDS011;15126;42.186;24.340;2023-03-23T00:25:48;39.40;;;30.57;;
27728;SDS011;15126;42.186;24.340;2023-03-23T00:28:18;35.67;;;31.00;;
27728;SDS011;15126;42.186;24.340;2023-03-23T00:30:54;34.63;;;29.63;;
27728;SDS011;15126;42.186;24.340;2023-03-23T00:33:23;36.23;;;31.00;;
27728;SDS011;15126;42.186;24.340;2023-03-23T00:35:51;34.37;;;30.73;;
27728;SDS011;15126;42.186;24.340;2023-03-23T00:38:19;38.37;;;32.00;;
27728;SDS011;15126;42.186;24.340;2023-03-23T00:40:46;38.87;;;33.83;;
27728;SDS011;15126;42.186;24.340;2023-03-23T00:43:13;38.20;;;32.77;;
27728;SDS011;15126;42.186;24.340;2023-03-23T00:45:41;44.33;;;33.40;;
27728;SDS011;15126;42.186;24.340;2023-03-23T00:48:11;42.23;;;32.50;;
27728;SDS011;15126;42.186;24.340;2023-03-23T00:50:38;37.67;;;30.77;;
27728;SDS011;15126;42.186;24.340;2023-03-23T00:53:05;42.87;;;34.40;;
27728;SDS011;15126;42.186;24.340;2023-03-23T00:55:32;39.50;;;34.63;;
27728;SDS011;15126;42.186;24.340;2023-03-23T00:57:59;41.47;;;34.10;;
27728;SDS011;15126;42.186;24.340;2023-03-23T01:00:26;40.47;;;33.87;;
27728;SDS011;15126;42.186;24.340;2023-03-23T01:02:53;37.27;;;33.27;;
27728;SDS011;15126;42.186;24.340;2023-03-23T01:05:21;37.57;;;30.37;;
27728;SDS011;15126;42.186;24.340;2023-03-23T01:07:48;36.43;;;27.93;;
27728;SDS011;15126;42.186;24.340;2023-03-23T01:10:15;29.13;;;25.57;;
27728;SDS011;15126;42.186;24.340;2023-03-23T01:12:43;29.33;;;24.33;;
27728;SDS011;15126;42.186;24.340;2023-03-23T01:15:14;28.97;;;25.33;;
27728;SDS011;15126;42.186;24.340;2023-03-23T01:17:42;34.40;;;26.17;;
27728;SDS011;15126;42.186;24.340;2023-03-23T01:20:09;27.23;;;23.87;;
27728;SDS011;15126;42.186;24.340;2023-03-23T01:22:38;33.83;;;25.33;;
27728;SDS011;15126;42.186;24.340;2023-03-23T01:25:06;29.67;;;25.30;;
27728;SDS011;15126;42.186;24.340;2023-03-23T01:27:34;31.73;;;26.77;;
27728;SDS011;15126;42.186;24.340;2023-03-23T01:30:00;27.90;;;25.03;;
27728;SDS011;15126;42.186;24.340;2023-03-23T01:32:29;35.83;;;26.67;;
27728;SDS011;15126;42.186;24.340;2023-03-23T01:34:56;29.23;;;24.60;;
27728;SDS011;15126;42.186;24.340;2023-03-23T01:37:24;32.47;;;27.60;;
27728;SDS011;15126;42.186;24.340;2023-03-23T01:39:53;27.23;;;24.43;;
27728;SDS011;15126;42.186;24.340;2023-03-23T01:42:21;29.77;;;23.90;;
27728;SDS011;15126;42.186;24.340;2023-03-23T01:47:52;29.70;;;24.97;;
27728;SDS011;15126;42.186;24.340;2023-03-23T01:50:25;27.67;;;23.43;;
27728;SDS011;15126;42.186;24.340;2023-03-23T01:52:54;31.13;;;26.50;;
27728;SDS011;15126;42.186;24.340;2023-03-23T01:55:26;28.40;;;24.77;;
27728;SDS011;15126;42.186;24.340;2023-03-23T01:57:54;27.60;;;24.10;;
27728;SDS011;15126;42.186;24.340;2023-03-23T02:00:22;26.97;;;24.07;;
27728;SDS011;15126;42.186;24.340;2023-03-23T02:02:51;27.83;;;23.37;;
27728;SDS011;15126;42.186;24.340;2023-03-23T02:05:21;30.30;;;25.73;;
27728;SDS011;15126;42.186;24.340;2023-03-23T02:07:53;30.70;;;26.83;;
27728;SDS011;15126;42.186;24.340;2023-03-23T02:10:29;29.03;;;25.53;;
27728;SDS011;15126;42.186;24.340;2023-03-23T02:12:57;27.80;;;24.77;;
27728;SDS011;15126;42.186;24.340;2023-03-23T02:15:25;27.80;;;23.50;;
27728;SDS011;15126;42.186;24.340;2023-03-23T02:17:57;27.17;;;23.70;;
27728;SDS011;15126;42.186;24.340;2023-03-23T02:20:38;26.27;;;22.97;;
27728;SDS011;15126;42.186;24.340;2023-03-23T02:23:26;30.13;;;25.67;;
27728;SDS011;15126;42.186;24.340;2023-03-23T02:26:12;29.20;;;23.37;;
27728;SDS011;15126;42.186;24.340;2023-03-23T02:29:02;38.13;;;24.83;;
27728;SDS011;15126;42.186;24.340;2023-03-23T02:31:43;27.70;;;23.70;;
27728;SDS011;15126;42.186;24.340;2023-03-23T02:34:25;33.00;;;25.50;;
27728;SDS011;15126;42.186;24.340;2023-03-23T02:36:56;31.03;;;25.00;;
27728;SDS011;15126;42.186;24.340;2023-03-23T02:39:28;31.07;;;25.00;;
27728;SDS011;15126;42.186;24.340;2023-03-23T02:42:00;29.10;;;24.77;;
27728;SDS011;15126;42.186;24.340;2023-03-23T02:44:32;33.73;;;25.97;;
27728;SDS011;15126;42.186;24.340;2023-03-23T02:47:02;31.43;;;27.23;;
27728;SDS011;15126;42.186;24.340;2023-03-23T02:49:33;34.37;;;27.30;;
27728;SDS011;15126;42.186;24.340;2023-03-23T02:52:02;36.40;;;27.77;;
27728;SDS011;15126;42.186;24.340;2023-03-23T02:54:37;31.43;;;27.40;;
27728;SDS011;15126;42.186;24.340;2023-03-23T02:57:06;32.30;;;26.43;;
27728;SDS011;15126;42.186;24.340;2023-03-23T02:59:33;32.87;;;27.70;;
27728;SDS011;15126;42.186;24.340;2023-03-23T03:02:01;32.57;;;26.13;;
27728;SDS011;15126;42.186;24.340;2023-03-23T03:04:34;35.17;;;27.00;;
27728;SDS011;15126;42.186;24.340;2023-03-23T03:07:07;32.77;;;27.43;;
27728;SDS011;15126;42.186;24.340;2023-03-23T03:09:55;30.20;;;26.57;;
27728;SDS011;15126;42.186;24.340;2023-03-23T03:12:28;32.97;;;26.87;;
27728;SDS011;15126;42.186;24.340;2023-03-23T03:15:04;33.20;;;28.90;;
27728;SDS011;15126;42.186;24.340;2023-03-23T03:17:36;31.33;;;26.73;;
27728;SDS011;15126;42.186;24.340;2023-03-23T03:20:11;34.93;;;27.43;;
27728;SDS011;15126;42.186;24.340;2023-03-23T03:22:39;33.97;;;26.80;;
27728;SDS011;15126;42.186;24.340;2023-03-23T03:25:10;31.90;;;26.77;;
27728;SDS011;15126;42.186;24.340;2023-03-23T03:27:40;39.07;;;31.03;;
27728;SDS011;15126;42.186;24.340;2023-03-23T03:30:12;37.80;;;28.23;;
27728;SDS011;15126;42.186;24.340;2023-03-23T03:32:44;44.10;;;33.17;;
27728;SDS011;15126;42.186;24.340;2023-03-23T03:35:17;51.93;;;36.40;;
27728;SDS011;15126;42.186;24.340;2023-03-23T03:37:44;54.63;;;39.83;;
27728;SDS011;15126;42.186;24.340;2023-03-23T03:40:13;66.40;;;42.67;;
27728;SDS011;15126;42.186;24.340;2023-03-23T03:42:42;63.40;;;41.73;;
27728;SDS011;15126;42.186;24.340;2023-03-23T03:45:11;52.43;;;39.23;;
27728;SDS011;15126;42.186;24.340;2023-03-23T03:47:39;48.37;;;39.90;;
27728;SDS011;15126;42.186;24.340;2023-03-23T03:50:06;51.03;;;36.87;;
27728;SDS011;15126;42.186;24.340;2023-03-23T03:52:35;49.20;;;37.37;;
27728;SDS011;15126;42.186;24.340;2023-03-23T03:55:03;48.23;;;36.13;;
27728;SDS011;15126;42.186;24.340;2023-03-23T03:57:32;43.70;;;35.23;;
27728;SDS011;15126;42.186;24.340;2023-03-23T03:59:58;47.80;;;34.77;;
27728;SDS011;15126;42.186;24.340;2023-03-23T04:02:25;41.60;;;32.20;;
27728;SDS011;15126;42.186;24.340;2023-03-23T04:04:52;37.73;;;28.03;;
27728;SDS011;15126;42.186;24.340;2023-03-23T04:07:19;38.53;;;28.67;;
27728;SDS011;15126;42.186;24.340;2023-03-23T04:09:48;34.60;;;26.37;;
27728;SDS011;15126;42.186;24.340;2023-03-23T04:12:14;38.03;;;29.67;;
27728;SDS011;15126;42.186;24.340;2023-03-23T04:14:41;38.43;;;29.30;;
27728;SDS011;15126;42.186;24.340;2023-03-23T04:17:08;32.73;;;28.03;;
27728;SDS011;15126;42.186;24.340;2023-03-23T04:19:35;36.77;;;27.80;;
27728;SDS011;15126;42.186;24.340;2023-03-23T04:22:03;34.60;;;27.30;;
27728;SDS011;15126;42.186;24.340;2023-03-23T04:24:31;43.00;;;30.47;;
27728;SDS011;15126;42.186;24.340;2023-03-23T04:27:02;38.50;;;29.70;;
27728;SDS011;15126;42.186;24.340;2023-03-23T04:29:28;42.03;;;30.73;;
27728;SDS011;15126;42.186;24.340;2023-03-23T04:31:55;49.87;;;34.80;;
27728;SDS011;15126;42.186;24.340;2023-03-23T04:34:22;48.53;;;34.03;;
27728;SDS011;15126;42.186;24.340;2023-03-23T04:36:49;47.33;;;33.53;;
27728;SDS011;15126;42.186;24.340;2023-03-23T04:39:16;51.90;;;36.37;;
27728;SDS011;15126;42.186;24.340;2023-03-23T04:41:43;53.93;;;37.47;;
27728;SDS011;15126;42.186;24.340;2023-03-23T04:44:12;52.63;;;35.50;;
27728;SDS011;15126;42.186;24.340;2023-03-23T04:46:43;58.97;;;37.87;;
27728;SDS011;15126;42.186;24.340;2023-03-23T04:49:14;52.97;;;34.97;;
27728;SDS011;15126;42.186;24.340;2023-03-23T04:51:46;56.13;;;38.40;;
27728;SDS011;15126;42.186;24.340;2023-03-23T04:54:13;46.37;;;35.80;;
27728;SDS011;15126;42.186;24.340;2023-03-23T04:56:40;51.37;;;37.90;;
27728;SDS011;15126;42.186;24.340;2023-03-23T04:59:07;56.13;;;38.97;;
27728;SDS011;15126;42.186;24.340;2023-03-23T05:01:35;54.60;;;38.53;;
27728;SDS011;15126;42.186;24.340;2023-03-23T05:04:03;55.07;;;36.57;;
27728;SDS011;15126;42.186;24.340;2023-03-23T05:06:31;51.87;;;36.93;;
27728;SDS011;15126;42.186;24.340;2023-03-23T05:08:57;41.03;;;34.10;;
27728;SDS011;15126;42.186;24.340;2023-03-23T05:11:24;45.13;;;30.67;;
27728;SDS011;15126;42.186;24.340;2023-03-23T05:13:52;43.77;;;34.23;;
27728;SDS011;15126;42.186;24.340;2023-03-23T05:16:18;39.40;;;30.17;;
27728;SDS011;15126;42.186;24.340;2023-03-23T05:18:47;40.13;;;30.27;;
27728;SDS011;15126;42.186;24.340;2023-03-23T05:21:13;38.80;;;30.50;;
27728;SDS011;15126;42.186;24.340;2023-03-23T05:23:40;46.20;;;30.37;;
27728;SDS011;15126;42.186;24.340;2023-03-23T05:26:07;33.70;;;28.67;;
27728;SDS011;15126;42.186;24.340;2023-03-23T05:28:34;33.60;;;29.80;;
27728;SDS011;15126;42.186;24.340;2023-03-23T05:31:01;30.90;;;27.30;;
27728;SDS011;15126;42.186;24.340;2023-03-23T05:33:28;36.87;;;27.70;;
27728;SDS011;15126;42.186;24.340;2023-03-23T05:35:56;37.57;;;29.70;;
27728;SDS011;15126;42.186;24.340;2023-03-23T05:38:23;40.93;;;31.00;;
27728;SDS011;15126;42.186;24.340;2023-03-23T05:40:49;37.00;;;30.40;;
27728;SDS011;15126;42.186;24.340;2023-03-23T05:43:17;36.77;;;30.73;;
27728;SDS011;15126;42.186;24.340;2023-03-23T05:45:44;38.50;;;30.07;;
27728;SDS011;15126;42.186;24.340;2023-03-23T05:48:11;36.60;;;30.53;;
27728;SDS011;15126;42.186;24.340;2023-03-23T05:50:37;38.43;;;32.13;;
27728;SDS011;15126;42.186;24.340;2023-03-23T05:53:06;41.00;;;31.73;;
27728;SDS011;15126;42.186;24.340;2023-03-23T05:55:32;35.67;;;28.67;;
27728;SDS011;15126;42.186;24.340;2023-03-23T05:57:59;36.37;;;29.10;;
27728;SDS011;15126;42.186;24.340;2023-03-23T06:00:26;43.80;;;28.50;;
27728;SDS011;15126;42.186;24.340;2023-03-23T06:02:55;31.63;;;25.90;;
27728;SDS011;15126;42.186;24.340;2023-03-23T06:05:22;32.47;;;24.20;;
27728;SDS011;15126;42.186;24.340;2023-03-23T06:07:51;28.63;;;25.23;;
27728;SDS011;15126;42.186;24.340;2023-03-23T06:10:20;28.70;;;25.23;;
27728;SDS011;15126;42.186;24.340;2023-03-23T06:12:46;40.93;;;30.00;;
27728;SDS011;15126;42.186;24.340;2023-03-23T06:15:13;39.80;;;28.70;;
27728;SDS011;15126;42.186;24.340;2023-03-23T06:17:40;39.60;;;26.43;;
27728;SDS011;15126;42.186;24.340;2023-03-23T06:20:07;34.97;;;24.70;;
27728;SDS011;15126;42.186;24.340;2023-03-23T06:22:35;27.37;;;22.87;;
27728;SDS011;15126;42.186;24.340;2023-03-23T06:25:03;25.87;;;21.63;;
27728;SDS011;15126;42.186;24.340;2023-03-23T06:27:32;27.27;;;22.33;;
27728;SDS011;15126;42.186;24.340;2023-03-23T06:30:00;20.83;;;18.83;;
27728;SDS011;15126;42.186;24.340;2023-03-23T06:32:28;23.23;;;20.17;;
27728;SDS011;15126;42.186;24.340;2023-03-23T06:34:56;24.50;;;19.87;;
27728;SDS011;15126;42.186;24.340;2023-03-23T06:37:23;24.30;;;19.47;;
27728;SDS011;15126;42.186;24.340;2023-03-23T06:39:50;19.57;;;17.53;;
27728;SDS011;15126;42.186;24.340;2023-03-23T06:42:18;19.90;;;17.80;;
27728;SDS011;15126;42.186;24.340;2023-03-23T06:44:46;24.43;;;18.93;;
27728;SDS011;15126;42.186;24.340;2023-03-23T06:47:13;30.67;;;19.40;;
27728;SDS011;15126;42.186;24.340;2023-03-23T06:49:39;22.43;;;18.17;;
27728;SDS011;15126;42.186;24.340;2023-03-23T06:52:06;20.53;;;18.30;;
27728;SDS011;15126;42.186;24.340;2023-03-23T06:54:33;25.07;;;18.40;;
27728;SDS011;15126;42.186;24.340;2023-03-23T06:57:00;22.97;;;17.37;;
27728;SDS011;15126;42.186;24.340;2023-03-23T06:59:27;21.77;;;17.40;;
27728;SDS011;15126;42.186;24.340;2023-03-23T07:01:55;20.63;;;17.47;;
27728;SDS011;15126;42.186;24.340;2023-03-23T07:04:23;17.63;;;15.90;;
27728;SDS011;15126;42.186;24.340;2023-03-23T07:06:53;18.70;;;15.73;;
27728;SDS011;15126;42.186;24.340;2023-03-23T07:09:19;17.87;;;16.17;;
27728;SDS011;15126;42.186;24.340;2023-03-23T07:11:46;17.87;;;15.93;;
27728;SDS011;15126;42.186;24.340;2023-03-23T07:14:13;17.13;;;15.33;;
27728;SDS011;15126;42.186;24.340;2023-03-23T07:16:41;18.67;;;16.97;;
27728;SDS011;15126;42.186;24.340;2023-03-23T07:19:09;20.17;;;18.17;;
27728;SDS011;15126;42.186;24.340;2023-03-23T07:21:36;18.30;;;16.47;;
27728;SDS011;15126;42.186;24.340;2023-03-23T07:24:03;26.53;;;20.03;;
27728;SDS011;15126;42.186;24.340;2023-03-23T07:26:30;22.50;;;20.10;;
27728;SDS011;15126;42.186;24.340;2023-03-23T07:28:57;20.30;;;18.30;;
27728;SDS011;15126;42.186;24.340;2023-03-23T07:31:24;20.07;;;16.83;;
27728;SDS011;15126;42.186;24.340;2023-03-23T07:33:51;17.63;;;15.93;;
27728;SDS011;15126;42.186;24.340;2023-03-23T07:36:19;18.53;;;16.83;;
27728;SDS011;15126;42.186;24.340;2023-03-23T07:38:46;25.67;;;17.10;;
27728;SDS011;15126;42.186;24.340;2023-03-23T07:41:13;16.70;;;15.27;;
27728;SDS011;15126;42.186;24.340;2023-03-23T07:43:40;17.10;;;15.53;;
27728;SDS011;15126;42.186;24.340;2023-03-23T07:46:07;16.00;;;14.50;;
27728;SDS011;15126;42.186;24.340;2023-03-23T07:48:34;18.83;;;15.03;;
27728;SDS011;15126;42.186;24.340;2023-03-23T07:51:01;15.80;;;14.40;;
27728;SDS011;15126;42.186;24.340;2023-03-23T07:53:29;22.83;;;15.63;;
27728;SDS011;15126;42.186;24.340;2023-03-23T07:55:57;17.57;;;15.87;;
27728;SDS011;15126;42.186;24.340;2023-03-23T07:58:24;16.63;;;14.60;;
27728;SDS011;15126;42.186;24.340;2023-03-23T08:00:53;15.67;;;14.17;;
27728;SDS011;15126;42.186;24.340;2023-03-23T08:03:22;18.33;;;14.63;;
27728;SDS011;15126;42.186;24.340;2023-03-23T08:05:49;21.20;;;19.00;;
27728;SDS011;15126;42.186;24.340;2023-03-23T08:08:16;33.20;;;30.30;;
27728;SDS011;15126;42.186;24.340;2023-03-23T08:10:45;19.77;;;17.67;;
27728;SDS011;15126;42.186;24.340;2023-03-23T08:13:11;18.43;;;16.67;;
27728;SDS011;15126;42.186;24.340;2023-03-23T08:15:39;20.03;;;18.03;;
27728;SDS011;15126;42.186;24.340;2023-03-23T08:18:06;16.70;;;15.17;;
27728;SDS011;15126;42.186;24.340;2023-03-23T08:20:33;17.93;;;16.10;;
27728;SDS011;15126;42.186;24.340;2023-03-23T08:23:00;18.33;;;16.63;;
27728;SDS011;15126;42.186;24.340;2023-03-23T08:25:28;17.33;;;15.53;;
27728;SDS011;15126;42.186;24.340;2023-03-23T08:27:58;18.57;;;16.60;;
27728;SDS011;15126;42.186;24.340;2023-03-23T08:30:26;19.47;;;15.10;;
27728;SDS011;15126;42.186;24.340;2023-03-23T08:32:55;17.17;;;15.47;;
27728;SDS011;15126;42.186;24.340;2023-03-23T08:35:22;17.97;;;16.17;;
27728;SDS011;15126;42.186;24.340;2023-03-23T08:37:50;17.53;;;15.37;;
27728;SDS011;15126;42.186;24.340;2023-03-23T08:40:18;16.70;;;14.30;;
27728;SDS011;15126;42.186;24.340;2023-03-23T08:42:47;16.43;;;14.67;;
27728;SDS011;15126;42.186;24.340;2023-03-23T08:45:17;16.63;;;15.13;;
27728;SDS011;15126;42.186;24.340;2023-03-23T08:47:46;15.80;;;14.20;;
27728;SDS011;15126;42.186;24.340;2023-03-23T08:50:15;17.63;;;15.43;;
27728;SDS011;15126;42.186;24.340;2023-03-23T08:52:43;15.87;;;14.47;;
27728;SDS011;15126;42.186;24.340;2023-03-23T08:55:09;18.90;;;12.80;;
27728;SDS011;15126;42.186;24.340;2023-03-23T08:57:36;17.43;;;14.17;;
27728;SDS011;15126;42.186;24.340;2023-03-23T09:00:04;14.10;;;12.63;;
27728;SDS011;15126;42.186;24.340;2023-03-23T09:02:43;15.03;;;13.47;;
27728;SDS011;15126;42.186;24.340;2023-03-23T09:05:10;14.23;;;12.90;;
27728;SDS011;15126;42.186;24.340;2023-03-23T09:07:38;14.50;;;13.20;;
27728;SDS011;15126;42.186;24.340;2023-03-23T09:10:06;14.00;;;12.53;;
27728;SDS011;15126;42.186;24.340;2023-03-23T09:12:33;12.03;;;11.07;;
27728;SDS011;15126;42.186;24.340;2023-03-23T09:15:01;11.53;;;9.90;;
27728;SDS011;15126;42.186;24.340;2023-03-23T09:17:30;12.47;;;11.40;;
27728;SDS011;15126;42.186;24.340;2023-03-23T09:19:58;10.47;;;9.47;;
27728;SDS011;15126;42.186;24.340;2023-03-23T09:22:25;11.20;;;10.03;;
27728;SDS011;15126;42.186;24.340;2023-03-23T09:24:52;10.30;;;9.43;;
27728;SDS011;15126;42.186;24.340;2023-03-23T09:27:19;10.23;;;9.33;;
27728;SDS011;15126;42.186;24.340;2023-03-23T09:29:46;11.50;;;10.30;;
27728;SDS011;15126;42.186;24.340;2023-03-23T09:32:14;10.53;;;9.63;;
27728;SDS011;15126;42.186;24.340;2023-03-23T09:34:41;10.00;;;9.10;;
27728;SDS011;15126;42.186;24.340;2023-03-23T09:37:09;10.57;;;9.10;;
27728;SDS011;15126;42.186;24.340;2023-03-23T09:39:38;11.07;;;10.07;;
27728;SDS011;15126;42.186;24.340;2023-03-23T09:42:11;11.10;;;10.03;;
27728;SDS011;15126;42.186;24.340;2023-03-23T09:44:51;11.30;;;9.00;;
27728;SDS011;15126;42.186;24.340;2023-03-23T09:47:29;9.67;;;8.77;;
27728;SDS011;15126;42.186;24.340;2023-03-23T09:50:03;10.50;;;9.60;;
27728;SDS011;15126;42.186;24.340;2023-03-23T09:52:37;10.40;;;9.40;;
27728;SDS011;15126;42.186;24.340;2023-03-23T09:55:10;9.87;;;9.07;;
27728;SDS011;15126;42.186;24.340;2023-03-23T09:57:43;9.03;;;8.20;;
27728;SDS011;15126;42.186;24.340;2023-03-23T10:00:18;8.20;;;7.50;;
27728;SDS011;15126;42.186;24.340;2023-03-23T10:02:52;8.57;;;7.87;;
27728;SDS011;15126;42.186;24.340;2023-03-23T10:05:26;9.50;;;8.60;;
27728;SDS011;15126;42.186;24.340;2023-03-23T10:08:00;10.00;;;8.93;;
27728;SDS011;15126;42.186;24.340;2023-03-23T10:10:31;10.00;;;8.73;;
27728;SDS011;15126;42.186;24.340;2023-03-23T10:13:09;8.57;;;7.87;;
27728;SDS011;15126;42.186;24.340;2023-03-23T10:15:45;9.70;;;8.77;;
27728;SDS011;15126;42.186;24.340;2023-03-23T10:18:15;9.47;;;8.57;;
27728;SDS011;15126;42.186;24.340;2023-03-23T10:20:46;9.83;;;9.03;;
27728;SDS011;15126;42.186;24.340;2023-03-23T10:23:33;11.57;;;8.77;;
27728;SDS011;15126;42.186;24.340;2023-03-23T10:26:10;9.13;;;8.33;;
27728;SDS011;15126;42.186;24.340;2023-03-23T10:28:48;9.50;;;8.67;;
27728;SDS011;15126;42.186;24.340;2023-03-23T10:31:19;8.97;;;8.10;;
27728;SDS011;15126;42.186;24.340;2023-03-23T10:33:50;10.33;;;9.33;;
27728;SDS011;15126;42.186;24.340;2023-03-23T10:36:21;9.00;;;8.20;;
27728;SDS011;15126;42.186;24.340;2023-03-23T10:38:56;8.30;;;7.60;;
27728;SDS011;15126;42.186;24.340;2023-03-23T10:41:27;8.67;;;7.87;;
27728;SDS011;15126;42.186;24.340;2023-03-23T10:43:54;8.80;;;8.03;;
27728;SDS011;15126;42.186;24.340;2023-03-23T10:46:24;9.13;;;8.33;;
27728;SDS011;15126;42.186;24.340;2023-03-23T10:48:56;9.17;;;8.27;;
27728;SDS011;15126;42.186;24.340;2023-03-23T10:51:27;9.50;;;8.60;;
27728;SDS011;15126;42.186;24.340;2023-03-23T10:54:01;9.67;;;8.77;;
27728;SDS011;15126;42.186;24.340;2023-03-23T10:56:34;9.27;;;8.47;;
27728;SDS011;15126;42.186;24.340;2023-03-23T10:59:11;8.23;;;7.43;;
27728;SDS011;15126;42.186;24.340;2023-03-23T11:01:41;7.70;;;7.07;;
27728;SDS011;15126;42.186;24.340;2023-03-23T11:04:11;8.33;;;7.63;;
27728;SDS011;15126;42.186;24.340;2023-03-23T11:06:42;9.40;;;8.50;;
27728;SDS011;15126;42.186;24.340;2023-03-23T11:09:13;10.13;;;9.30;;
27728;SDS011;15126;42.186;24.340;2023-03-23T11:11:43;9.60;;;8.80;;
27728;SDS011;15126;42.186;24.340;2023-03-23T11:14:16;8.97;;;8.17;;
27728;SDS011;15126;42.186;24.340;2023-03-23T11:16:45;10.53;;;9.63;;
27728;SDS011;15126;42.186;24.340;2023-03-23T11:19:22;9.53;;;8.63;;
27728;SDS011;15126;42.186;24.340;2023-03-23T11:21:50;8.53;;;7.77;;
27728;SDS011;15126;42.186;24.340;2023-03-23T11:24:22;9.70;;;8.90;;
27728;SDS011;15126;42.186;24.340;2023-03-23T11:26:49;9.97;;;8.97;;
27728;SDS011;15126;42.186;24.340;2023-03-23T11:29:19;8.80;;;8.00;;
27728;SDS011;15126;42.186;24.340;2023-03-23T11:31:48;9.93;;;8.67;;
27728;SDS011;15126;42.186;24.340;2023-03-23T11:34:18;8.83;;;7.83;;
27728;SDS011;15126;42.186;24.340;2023-03-23T11:36:47;9.13;;;8.33;;
27728;SDS011;15126;42.186;24.340;2023-03-23T11:39:22;8.27;;;7.47;;
27728;SDS011;15126;42.186;24.340;2023-03-23T11:41:51;7.23;;;6.53;;
27728;SDS011;15126;42.186;24.340;2023-03-23T11:44:19;7.90;;;7.10;;
27728;SDS011;15126;42.186;24.340;2023-03-23T11:46:50;7.47;;;6.87;;
27728;SDS011;15126;42.186;24.340;2023-03-23T11:49:26;7.30;;;6.60;;
27728;SDS011;15126;42.186;24.340;2023-03-23T11:52:01;7.40;;;6.80;;
27728;SDS011;15126;42.186;24.340;2023-03-23T11:54:38;8.20;;;7.40;;
27728;SDS011;15126;42.186;24.340;2023-03-23T11:57:10;7.83;;;7.10;;
27728;SDS011;15126;42.186;24.340;2023-03-23T11:59:39;7.53;;;6.93;;
27728;SDS011;15126;42.186;24.340;2023-03-23T12:02:16;7.77;;;7.17;;
27728;SDS011;15126;42.186;24.340;2023-03-23T12:04:59;8.60;;;7.83;;
27728;SDS011;15126;42.186;24.340;2023-03-23T12:07:56;7.40;;;6.70;;
27728;SDS011;15126;42.186;24.340;2023-03-23T12:10:38;8.57;;;7.67;;
27728;SDS011;15126;42.186;24.340;2023-03-23T12:13:16;7.20;;;6.50;;
27728;SDS011;15126;42.186;24.340;2023-03-23T12:16:00;7.57;;;6.87;;
27728;SDS011;15126;42.186;24.340;2023-03-23T12:18:38;6.80;;;6.20;;
27728;SDS011;15126;42.186;24.340;2023-03-23T12:21:17;8.13;;;7.43;;
27728;SDS011;15126;42.186;24.340;2023-03-23T12:23:54;8.47;;;7.77;;
27728;SDS011;15126;42.186;24.340;2023-03-23T12:26:31;7.97;;;7.37;;
27728;SDS011;15126;42.186;24.340;2023-03-23T12:29:10;8.87;;;8.17;;
27728;SDS011;15126;42.186;24.340;2023-03-23T12:31:56;8.60;;;7.60;;
27728;SDS011;15126;42.186;24.340;2023-03-23T12:34:38;8.43;;;7.60;;
27728;SDS011;15126;42.186;24.340;2023-03-23T12:37:12;7.43;;;6.80;;
27728;SDS011;15126;42.186;24.340;2023-03-23T12:39:57;6.93;;;6.43;;
27728;SDS011;15126;42.186;24.340;2023-03-23T12:42:46;7.30;;;6.70;;
27728;SDS011;15126;42.186;24.340;2023-03-23T12:45:22;6.67;;;6.07;;
27728;SDS011;15126;42.186;24.340;2023-03-23T12:47:55;7.13;;;6.43;;
27728;SDS011;15126;42.186;24.340;2023-03-23T12:50:27;8.27;;;7.57;;
27728;SDS011;15126;42.186;24.340;2023-03-23T12:53:02;7.67;;;6.97;;
27728;SDS011;15126;42.186;24.340;2023-03-23T12:55:35;7.47;;;6.87;;
27728;SDS011;15126;42.186;24.340;2023-03-23T12:58:09;10.80;;;7.50;;
27728;SDS011;15126;42.186;24.340;2023-03-23T13:00:49;7.73;;;7.13;;
27728;SDS011;15126;42.186;24.340;2023-03-23T13:03:24;9.17;;;7.03;;
27728;SDS011;15126;42.186;24.340;2023-03-23T13:05:59;8.17;;;7.37;;
27728;SDS011;15126;42.186;24.340;2023-03-23T13:08:32;8.27;;;7.33;;
27728;SDS011;15126;42.186;24.340;2023-03-23T13:11:03;9.33;;;7.80;;
27728;SDS011;15126;42.186;24.340;2023-03-23T13:13:43;8.10;;;7.33;;
27728;SDS011;15126;42.186;24.340;2023-03-23T13:16:16;13.13;;;7.50;;
27728;SDS011;15126;42.186;24.340;2023-03-23T13:18:55;11.13;;;7.73;;
27728;SDS011;15126;42.186;24.340;2023-03-23T13:21:34;8.17;;;7.37;;
27728;SDS011;15126;42.186;24.340;2023-03-23T13:24:08;8.03;;;7.23;;
27728;SDS011;15126;42.186;24.340;2023-03-23T13:26:39;8.57;;;7.87;;
27728;SDS011;15126;42.186;24.340;2023-03-23T13:29:13;7.93;;;7.07;;
27728;SDS011;15126;42.186;24.340;2023-03-23T13:31:43;7.83;;;7.07;;
27728;SDS011;15126;42.186;24.340;2023-03-23T13:34:14;7.97;;;6.50;;
27728;SDS011;15126;42.186;24.340;2023-03-23T13:36:44;7.93;;;7.20;;
27728;SDS011;15126;42.186;24.340;2023-03-23T13:39:21;8.30;;;7.60;;
27728;SDS011;15126;42.186;24.340;2023-03-23T13:41:59;8.17;;;7.47;;
27728;SDS011;15126;42.186;24.340;2023-03-23T13:44:39;8.13;;;7.47;;
27728;SDS011;15126;42.186;24.340;2023-03-23T13:47:16;8.27;;;7.47;;
27728;SDS011;15126;42.186;24.340;2023-03-23T13:49:52;8.80;;;8.00;;
27728;SDS011;15126;42.186;24.340;2023-03-23T13:52:24;9.50;;;8.50;;
27728;SDS011;15126;42.186;24.340;2023-03-23T13:55:13;8.07;;;7.23;;
27728;SDS011;15126;42.186;24.340;2023-03-23T13:57:49;7.33;;;6.50;;
27728;SDS011;15126;42.186;24.340;2023-03-23T14:00:44;8.93;;;8.03;;
27728;SDS011;15126;42.186;24.340;2023-03-23T14:03:14;8.70;;;7.90;;
27728;SDS011;15126;42.186;24.340;2023-03-23T14:05:44;7.93;;;7.23;;
27728;SDS011;15126;42.186;24.340;2023-03-23T14:08:19;8.53;;;7.73;;
27728;SDS011;15126;42.186;24.340;2023-03-23T14:10:50;10.43;;;8.33;;
27728;SDS011;15126;42.186;24.340;2023-03-23T14:13:21;8.07;;;7.10;;
27728;SDS011;15126;42.186;24.340;2023-03-23T14:15:56;8.23;;;7.43;;
27728;SDS011;15126;42.186;24.340;2023-03-23T14:18:27;7.90;;;7.20;;
27728;SDS011;15126;42.186;24.340;2023-03-23T14:20:58;8.40;;;7.57;;
27728;SDS011;15126;42.186;24.340;2023-03-23T14:23:26;9.50;;;7.30;;
27728;SDS011;15126;42.186;24.340;2023-03-23T14:25:56;8.83;;;8.03;;
27728;SDS011;15126;42.186;24.340;2023-03-23T14:28:36;8.10;;;7.40;;
27728;SDS011;15126;42.186;24.340;2023-03-23T14:31:08;9.17;;;7.47;;
27728;SDS011;15126;42.186;24.340;2023-03-23T14:33:42;14.80;;;7.57;;
27728;SDS011;15126;42.186;24.340;2023-03-23T14:36:09;8.63;;;7.27;;
27728;SDS011;15126;42.186;24.340;2023-03-23T14:38:36;8.07;;;7.27;;